Time;durP1;ratioP1;P1;durP2;ratioP2;P2;SDS_P1;SDS_P2;PMS_P1;PMS_P2;Temp;Humidity;BMP_temperature;BMP_pressure;BME280_temperature;BME280_humidity;BME280_pressure;Samples;Min_cycle;Max_cycle;Signal;HPM_P1;HPM_P2
2022/02/07 00:00:37;;;;;;;6.00;2.80;;;;;;;5.44;79.83;97783.33;130357;1268;108668;-82
2022/02/07 00:03:50;;;;;;;3.90;2.50;;;;;;;5.44;79.77;97789.23;130386;1268;108685;-82
2022/02/07 00:06:56;;;;;;;4.10;2.20;;;;;;;5.43;79.75;97798.20;130418;1268;108816;-82
2022/02/07 00:10:01;;;;;;;3.20;2.00;;;;;;;5.38;79.55;97808.67;131054;1268;107818;-83
2022/02/07 00:13:07;;;;;;;4.20;2.40;;;;;;;5.37;79.76;97813.95;131094;1268;107581;-82
2022/02/07 00:16:12;;;;;;;4.10;2.40;;;;;;;5.41;79.79;97813.50;130569;1268;109041;-85
2022/02/07 00:19:21;;;;;;;3.40;2.00;;;;;;;5.42;79.68;97821.83;130373;1268;108763;-87
2022/02/07 00:22:27;;;;;;;3.50;2.30;;;;;;;5.41;79.37;97832.38;130538;1268;108849;-88
2022/02/07 00:25:32;;;;;;;4.10;2.60;;;;;;;5.35;79.39;97844.34;130363;1268;107689;-89
2022/02/07 00:28:38;;;;;;;2.90;2.00;;;;;;;5.32;79.20;97842.86;130570;1268;106693;-88
2022/02/07 00:31:44;;;;;;;5.00;2.40;;;;;;;5.31;79.35;97857.86;130820;1268;107667;-87
2022/02/07 00:34:50;;;;;;;3.00;1.90;;;;;;;5.33;79.09;97864.80;131615;1268;107720;-87
2022/02/07 00:37:57;;;;;;;2.40;1.70;;;;;;;5.35;78.88;97870.58;131139;1268;107767;-86
2022/02/07 00:41:16;;;;;;;1.90;1.40;;;;;;;5.36;78.62;97876.69;130319;1268;107733;-83
2022/02/07 00:44:22;;;;;;;2.20;1.30;;;;;;;5.27;78.44;97863.09;130431;1268;109147;-84
2022/02/07 00:47:27;;;;;;;2.30;1.50;;;;;;;5.19;78.44;97860.34;130401;1268;108692;-82
2022/02/07 00:50:35;;;;;;;2.10;1.30;;;;;;;5.14;78.56;97866.86;130150;1268;216383;-83
2022/02/07 00:53:41;;;;;;;2.30;1.70;;;;;;;5.15;78.25;97880.45;130311;1268;107918;-83
2022/02/07 00:56:47;;;;;;;1.70;1.30;;;;;;;5.14;78.50;97880.23;130464;1268;108777;-83
2022/02/07 00:59:52;;;;;;;8.30;6.10;;;;;;;5.15;78.16;97886.27;130421;1268;108861;-84
2022/02/07 01:02:59;;;;;;;5.30;3.00;;;;;;;5.13;77.83;97895.01;130333;1268;108775;-85
2022/02/07 01:06:05;;;;;;;4.50;2.40;;;;;;;5.04;77.88;97893.82;130459;1268;108875;-80
2022/02/07 01:09:16;;;;;;;3.70;2.40;;;;;;;5.00;77.90;97893.15;130519;1268;107768;-81
2022/02/07 01:12:41;;;;;;;1.60;1.10;;;;;;;4.93;77.78;97893.27;130326;1268;108763;-88
2022/02/07 01:16:02;;;;;;;6.70;3.70;;;;;;;4.80;77.35;97887.42;130364;1268;107390;-83
2022/02/07 01:19:49;;;;;;;4.30;3.00;;;;;;;4.74;77.33;97890.64;130431;1268;108834;-82
2022/02/07 01:53:41;;;;;;;49.00;22.60;;;;;;;4.46;76.60;97896.73;130262;1268;108798;-81
2022/02/07 01:56:50;;;;;;;62.10;28.30;;;;;;;4.36;76.61;97891.76;130443;1267;106665;-80
2022/02/07 01:59:57;;;;;;;42.40;19.50;;;;;;;4.29;76.88;97892.32;130376;1268;108689;-80
2022/02/07 02:03:07;;;;;;;68.40;31.70;;;;;;;4.25;77.09;97897.38;130399;1268;108721;-80
2022/02/07 02:06:19;;;;;;;25.20;12.20;;;;;;;4.26;77.12;97900.50;130300;1268;108765;-77
2022/02/07 02:09:36;;;;;;;50.80;23.80;;;;;;;4.31;76.98;97903.65;130375;1268;108847;-77
2022/02/07 02:12:54;;;;;;;23.10;10.10;;;;;;;4.34;76.96;97904.27;130258;1268;108828;-78
2022/02/07 02:16:07;;;;;;;24.70;12.20;;;;;;;4.38;77.05;97899.72;130295;1268;107733;-82
2022/02/07 02:19:39;;;;;;;26.80;12.10;;;;;;;4.42;76.93;97892.86;130339;1268;108657;-84
2022/02/07 02:33:20;;;;;;;18.30;8.80;;;;;;;4.34;76.79;97909.85;130367;1268;109296;-87
2022/02/07 02:36:38;;;;;;;17.70;9.50;;;;;;;4.38;77.01;97901.95;130465;1268;107530;-84
2022/02/07 02:46:32;;;;;;;30.60;18.40;;;;;;;4.57;77.05;97918.83;130416;1268;107969;-85
2022/02/07 02:49:46;;;;;;;13.60;6.20;;;;;;;4.62;77.19;97914.87;130371;1268;108894;-85
2022/02/07 02:52:52;;;;;;;13.00;6.90;;;;;;;4.65;76.93;97914.98;130393;1268;107769;-83
2022/02/07 02:55:58;;;;;;;14.00;8.40;;;;;;;4.64;76.90;97915.98;130398;1268;108776;-82
2022/02/07 02:59:19;;;;;;;18.70;10.80;;;;;;;4.62;77.03;97914.71;130383;1268;108869;-82
2022/02/07 03:02:24;;;;;;;17.80;10.50;;;;;;;4.59;77.01;97921.55;130342;1268;108710;-79
2022/02/07 03:05:31;;;;;;;7.40;3.90;;;;;;;4.55;77.05;97929.36;130327;1268;108956;-78
2022/02/07 03:08:38;;;;;;;4.60;3.00;;;;;;;4.54;77.00;97929.27;130312;1268;108970;-82
2022/02/07 03:11:44;;;;;;;13.10;8.40;;;;;;;4.60;77.23;97935.19;130414;1268;108769;-81
2022/02/07 03:14:50;;;;;;;5.50;3.50;;;;;;;4.65;77.07;97937.90;130297;1268;108739;-79
2022/02/07 03:17:55;;;;;;;6.20;3.90;;;;;;;4.68;77.00;97940.43;130322;1268;108645;-79
2022/02/07 03:21:01;;;;;;;8.10;4.50;;;;;;;4.69;77.06;97945.87;130229;1268;108720;-79
2022/02/07 03:24:08;;;;;;;18.30;9.60;;;;;;;4.72;77.06;97950.52;130267;1268;108847;-80
2022/02/07 03:27:17;;;;;;;33.00;15.30;;;;;;;4.72;77.05;97957.23;130302;1268;106671;-81
2022/02/07 03:30:27;;;;;;;14.40;6.40;;;;;;;4.69;76.93;97963.63;130227;1268;108885;-78
2022/02/07 03:33:33;;;;;;;11.70;5.70;;;;;;;4.67;76.96;97967.08;130300;1268;108447;-79
2022/02/07 03:36:39;;;;;;;19.90;9.60;;;;;;;4.67;77.11;97965.00;130247;1268;107169;-78
2022/02/07 03:39:45;;;;;;;16.70;8.30;;;;;;;4.70;77.11;97957.94;130394;1268;107692;-79
2022/02/07 03:42:53;;;;;;;12.10;6.20;;;;;;;4.76;77.12;97956.67;130277;1268;108629;-82
2022/02/07 03:45:59;;;;;;;11.80;5.60;;;;;;;4.81;77.10;97957.11;130216;1268;108788;-80
2022/02/07 03:49:04;;;;;;;8.60;4.30;;;;;;;4.85;77.06;97954.51;130310;1268;108717;-76
2022/02/07 03:52:12;;;;;;;9.80;5.30;;;;;;;4.89;77.01;97954.45;130253;1268;108588;-76
2022/02/07 03:55:18;;;;;;;17.50;9.50;;;;;;;4.91;76.97;97950.20;130231;1268;108700;-77
2022/02/07 03:58:24;;;;;;;9.00;4.90;;;;;;;4.90;76.74;97944.13;130213;1268;108826;-77
2022/02/07 04:01:34;;;;;;;9.30;4.30;;;;;;;4.87;76.84;97940.38;130280;1268;108770;-76
2022/02/07 04:04:43;;;;;;;8.10;3.40;;;;;;;4.86;76.98;97938.39;130456;1268;108739;-75
2022/02/07 04:07:49;;;;;;;12.00;6.70;;;;;;;4.85;76.91;97938.73;130237;1268;107723;-73
2022/02/07 04:11:01;;;;;;;3.80;2.10;;;;;;;4.85;76.94;97937.23;130428;1268;107659;-76
2022/02/07 04:14:07;;;;;;;4.60;2.00;;;;;;;4.88;77.02;97935.64;130887;1268;108901;-76
2022/02/07 04:17:20;;;;;;;5.70;2.40;;;;;;;4.96;76.94;97940.33;130227;1268;108732;-75
2022/02/07 04:20:26;;;;;;;3.40;2.30;;;;;;;5.02;76.93;97938.40;130302;1268;108836;-76
2022/02/07 04:23:31;;;;;;;3.20;1.90;;;;;;;5.05;77.00;97941.48;130289;1268;108036;-76
2022/02/07 04:26:53;;;;;;;4.10;1.90;;;;;;;5.09;76.96;97942.16;130281;1268;108752;-75
2022/02/07 04:29:59;;;;;;;5.40;2.40;;;;;;;5.08;76.86;97943.45;130281;1268;108621;-75
2022/02/07 04:33:11;;;;;;;3.80;2.40;;;;;;;5.05;77.07;97945.45;130220;1268;109152;-75
2022/02/07 04:36:17;;;;;;;3.50;2.30;;;;;;;5.00;77.08;97952.55;130241;1268;108667;-75
2022/02/07 04:39:22;;;;;;;4.40;2.10;;;;;;;4.95;77.27;97953.29;130212;1268;108964;-76
2022/02/07 04:42:29;;;;;;;14.80;7.60;;;;;;;4.91;77.12;97949.23;130241;1268;108694;-76
2022/02/07 04:45:56;;;;;;;27.80;11.80;;;;;;;4.91;77.30;97950.09;130518;1268;108837;-76
2022/02/07 04:49:18;;;;;;;55.90;24.40;;;;;;;4.93;77.49;97953.98;130377;1268;108854;-76
2022/02/07 04:52:41;;;;;;;32.40;15.80;;;;;;;4.97;77.48;97956.48;130289;1268;108083;-76
2022/02/07 04:56:01;;;;;;;10.50;5.50;;;;;;;5.00;77.51;97957.77;130308;1268;108817;-75
2022/02/07 04:59:14;;;;;;;19.40;9.50;;;;;;;4.98;77.50;97958.38;130269;1268;108565;-75
2022/02/07 05:02:27;;;;;;;26.80;14.20;;;;;;;4.94;77.56;97957.79;130171;1267;108857;-76
2022/02/07 05:15:42;;;;;;;23.00;12.10;;;;;;;4.85;77.79;97964.98;130237;1268;109006;-75
2022/02/07 05:18:53;;;;;;;8.70;5.50;;;;;;;4.83;77.72;97970.58;130270;1268;108597;-75
2022/02/07 05:22:05;;;;;;;9.00;5.10;;;;;;;4.83;77.89;97967.47;130223;1268;107671;-75
2022/02/07 05:25:31;;;;;;;4.80;2.80;;;;;;;4.82;77.76;97966.86;130291;1268;108713;-75
2022/02/07 05:28:59;;;;;;;7.20;3.80;;;;;;;4.81;77.89;97967.14;130243;1268;108809;-75
2022/02/07 05:32:25;;;;;;;4.80;2.40;;;;;;;4.79;77.81;97966.50;130242;1268;110057;-75
2022/02/07 05:35:53;;;;;;;3.10;1.80;;;;;;;4.76;77.91;97967.98;130225;1268;108872;-74
2022/02/07 05:39:33;;;;;;;7.50;4.00;;;;;;;4.79;78.08;97967.55;130203;1268;108642;-75
2022/02/07 05:43:18;;;;;;;5.00;3.00;;;;;;;4.85;78.09;97970.89;130360;1268;108729;-76
2022/02/07 05:46:55;;;;;;;6.00;3.30;;;;;;;4.90;78.06;97973.97;130101;1268;108573;-75
2022/02/07 05:50:19;;;;;;;6.20;3.90;;;;;;;4.93;77.95;97974.62;130387;1268;108959;-77
2022/02/07 05:53:44;;;;;;;6.30;3.50;;;;;;;4.92;78.03;97980.54;130267;1268;108969;-75
2022/02/07 05:57:06;;;;;;;6.60;3.80;;;;;;;4.92;78.12;97987.41;130307;1268;108866;-76
2022/02/07 06:00:38;;;;;;;7.00;3.00;;;;;;;4.90;78.18;97994.29;130223;1268;108683;-78
2022/02/07 06:03:47;;;;;;;5.40;2.90;;;;;;;4.90;78.17;98000.82;130274;1268;108994;-75
2022/02/07 06:06:53;;;;;;;4.80;2.70;;;;;;;4.90;78.20;98003.77;130263;1268;108641;-76
2022/02/07 06:09:59;;;;;;;5.90;3.70;;;;;;;4.91;78.45;98002.81;130234;1269;108973;-76
2022/02/07 06:13:06;;;;;;;7.00;4.60;;;;;;;4.88;78.29;98009.49;130278;1268;108658;-76
2022/02/07 06:16:15;;;;;;;7.20;3.40;;;;;;;4.85;78.35;98019.32;130297;1268;108903;-75
2022/02/07 06:19:22;;;;;;;5.10;3.00;;;;;;;4.60;78.24;98036.58;130281;1270;108746;-76
2022/02/07 06:22:28;;;;;;;7.00;4.10;;;;;;;4.04;79.07;98060.95;130234;1269;108732;-76
2022/02/07 06:25:34;;;;;;;9.00;5.00;;;;;;;3.52;80.44;98069.65;130261;1268;107657;-75
2022/02/07 06:28:40;;;;;;;3.50;2.30;;;;;;;3.28;80.18;98075.48;130295;1268;108714;-76
2022/02/07 06:31:47;;;;;;;3.40;1.90;;;;;;;3.13;80.45;98086.35;130271;1268;108692;-75
2022/02/07 06:34:53;;;;;;;3.20;1.90;;;;;;;2.94;80.78;98098.54;130257;1268;108872;-75
2022/02/07 06:37:59;;;;;;;66.80;25.60;;;;;;;2.65;81.54;98106.06;130344;1269;108875;-76
2022/02/07 06:41:05;;;;;;;128.90;40.70;;;;;;;2.53;80.77;98110.79;130269;1268;108871;-75
2022/02/07 06:44:12;;;;;;;28.30;11.30;;;;;;;2.60;80.32;98116.30;130314;1268;108954;-74
2022/02/07 06:47:18;;;;;;;67.10;24.40;;;;;;;2.72;80.15;98132.52;130281;1267;107845;-76
2022/02/07 06:50:25;;;;;;;24.80;10.10;;;;;;;2.88;80.06;98148.98;130245;1269;108879;-74
2022/02/07 06:53:30;;;;;;;46.30;19.50;;;;;;;2.89;80.21;98157.03;130244;1269;107685;-78
2022/02/07 06:56:36;;;;;;;11.00;4.80;;;;;;;2.73;80.32;98165.85;130264;1268;108682;-77
2022/02/07 06:59:45;;;;;;;51.40;22.80;;;;;;;2.65;80.40;98168.14;130236;1268;108701;-77
2022/02/07 07:02:52;;;;;;;21.70;9.30;;;;;;;2.64;80.95;98176.92;130240;1269;108676;-77
2022/02/07 07:05:59;;;;;;;6.10;3.10;;;;;;;2.54;81.57;98181.23;130297;1270;109045;-77
2022/02/07 07:09:06;;;;;;;13.90;5.80;;;;;;;2.40;82.17;98183.52;130276;1268;107818;-77
2022/02/07 07:12:13;;;;;;;8.20;4.20;;;;;;;2.29;83.44;98196.45;130231;1270;108881;-77
2022/02/07 07:15:35;;;;;;;4.50;3.40;;;;;;;2.23;83.21;98208.17;130237;1269;108883;-77
2022/02/07 07:18:41;;;;;;;5.50;3.80;;;;;;;2.26;82.87;98215.34;130296;1270;108737;-77
2022/02/07 07:21:48;;;;;;;3.70;2.90;;;;;;;2.32;83.20;98224.58;130245;1269;108676;-77
2022/02/07 07:24:54;;;;;;;7.80;5.20;;;;;;;2.35;83.34;98226.58;130182;1268;108844;-77
2022/02/07 07:28:06;;;;;;;3.30;2.90;;;;;;;2.33;83.58;98231.00;130257;1268;108779;-77
2022/02/07 07:31:19;;;;;;;4.00;2.90;;;;;;;2.31;83.41;98245.44;130290;1270;108760;-77
2022/02/07 07:34:30;;;;;;;8.50;5.30;;;;;;;2.29;83.43;98257.50;130321;1268;108775;-76
2022/02/07 07:37:40;;;;;;;5.60;3.40;;;;;;;2.28;84.15;98269.89;130269;1270;107901;-77
2022/02/07 07:40:48;;;;;;;11.40;6.70;;;;;;;2.27;83.56;98276.83;130310;1268;108768;-76
2022/02/07 07:44:00;;;;;;;38.50;18.30;;;;;;;2.37;83.55;98290.25;130274;1270;108760;-77
2022/02/07 07:47:26;;;;;;;20.60;10.20;;;;;;;2.36;83.72;98301.72;130372;1268;107699;-77
2022/02/07 07:51:05;;;;;;;16.20;9.40;;;;;;;2.36;83.48;98302.11;130299;1270;108798;-76
2022/02/07 07:54:48;;;;;;;4.70;3.30;;;;;;;2.44;83.57;98313.67;130272;1268;108699;-77
2022/02/07 08:01:37;;;;;;;5.60;3.50;;;;;;;2.58;83.46;98324.19;130279;1269;109256;-77
2022/02/07 08:04:45;;;;;;;5.30;3.60;;;;;;;2.60;83.40;98326.80;130328;1268;107654;-77
2022/02/07 08:07:55;;;;;;;5.90;3.70;;;;;;;2.66;83.31;98337.28;130260;1268;107687;-77
2022/02/07 08:11:04;;;;;;;20.10;9.50;;;;;;;2.63;83.53;98353.17;130283;1269;108723;-77
2022/02/07 08:14:13;;;;;;;69.60;34.80;;;;;;;2.70;83.24;98359.05;130277;1268;109072;-77
2022/02/07 08:17:21;;;;;;;177.50;83.10;;;;;;;2.82;83.18;98364.90;130184;1270;108740;-77
2022/02/07 08:20:27;;;;;;;145.90;67.80;;;;;;;2.83;83.35;98369.32;130277;1268;108695;-77
2022/02/07 08:23:33;;;;;;;19.90;13.70;;;;;;;2.90;83.15;98372.94;130131;1268;108670;-77
2022/02/07 08:26:40;;;;;;;5.70;3.70;;;;;;;2.95;83.23;98378.20;130274;1268;107409;-77
2022/02/07 08:29:46;;;;;;;5.70;3.90;;;;;;;2.92;83.07;98380.76;130299;1270;108705;-77
2022/02/07 08:32:51;;;;;;;5.40;2.90;;;;;;;2.98;83.11;98386.35;130280;1270;108751;-77
2022/02/07 08:35:56;;;;;;;4.10;3.00;;;;;;;3.03;83.21;98389.20;130258;1268;108809;-77
2022/02/07 08:39:02;;;;;;;9.00;6.40;;;;;;;3.05;82.95;98399.14;130243;1267;108766;-77
2022/02/07 08:42:09;;;;;;;5.50;3.60;;;;;;;3.10;82.97;98398.88;130392;1268;108706;-77
2022/02/07 08:45:15;;;;;;;5.30;2.60;;;;;;;3.20;82.86;98405.63;130255;1268;106574;-77
2022/02/07 08:48:20;;;;;;;3.50;2.60;;;;;;;3.25;82.80;98406.35;130346;1270;108739;-77
2022/02/07 08:51:30;;;;;;;4.30;3.00;;;;;;;3.26;82.65;98415.23;130311;1270;108575;-77
2022/02/07 08:54:36;;;;;;;3.90;2.80;;;;;;;3.26;82.68;98423.59;130296;1268;108701;-77
2022/02/07 08:57:45;;;;;;;4.20;3.00;;;;;;;3.21;82.81;98424.86;130306;1268;108773;-77
2022/02/07 09:00:56;;;;;;;8.50;5.40;;;;;;;3.10;82.95;98433.60;130299;1268;109315;-77
2022/02/07 09:04:40;;;;;;;4.80;3.70;;;;;;;3.14;83.26;98441.87;130246;1270;108697;-77
2022/02/07 09:07:37;;;;;;;11.20;7.70;;;;;;;3.12;83.24;98447.84;130253;1268;108708;-76
2022/02/07 09:10:43;;;;;;;7.10;4.30;;;;;;;3.15;83.24;98456.14;130311;1268;107342;-77
2022/02/07 09:13:49;;;;;;;6.40;2.90;;;;;;;3.09;83.38;98466.02;130272;1270;109082;-76
2022/02/07 09:16:54;;;;;;;3.60;2.00;;;;;;;2.96;83.50;98475.41;130256;1268;108833;-76
2022/02/07 09:20:00;;;;;;;7.40;3.00;;;;;;;2.99;83.55;98487.80;130269;1268;108807;-76
2022/02/07 09:23:06;;;;;;;9.80;5.40;;;;;;;3.00;83.28;98492.95;130264;1270;108819;-77
2022/02/07 09:26:12;;;;;;;6.50;3.00;;;;;;;2.98;83.24;98501.23;130340;1268;107566;-78
2022/02/07 09:29:17;;;;;;;9.30;3.80;;;;;;;2.95;83.25;98507.79;130345;1269;106808;-80
2022/02/07 09:32:22;;;;;;;4.80;2.20;;;;;;;2.94;83.30;98512.94;130270;1268;108947;-78
2022/02/07 09:35:29;;;;;;;5.70;2.60;;;;;;;2.82;83.28;98526.26;130157;1268;107754;-77
2022/02/07 09:38:35;;;;;;;7.00;3.60;;;;;;;2.72;83.39;98535.98;130299;1269;108670;-78
2022/02/07 09:41:41;;;;;;;8.30;3.60;;;;;;;2.58;83.66;98545.02;130297;1268;108844;-77
2022/02/07 09:44:52;;;;;;;4.60;2.60;;;;;;;2.44;83.76;98549.80;130333;1268;108726;-77
2022/02/07 09:47:57;;;;;;;12.70;5.90;;;;;;;2.19;84.80;98564.09;130184;1269;108790;-78
2022/02/07 09:51:03;;;;;;;20.90;9.90;;;;;;;2.07;84.93;98561.86;130362;1268;106707;-78
2022/02/07 09:54:08;;;;;;;27.80;15.80;;;;;;;2.01;85.15;98573.46;130295;1268;108761;-79
2022/02/07 09:57:17;;;;;;;6.80;4.70;;;;;;;1.89;85.49;98580.64;130261;1268;109250;-75
2022/02/07 10:00:30;;;;;;;24.40;12.60;;;;;;;1.71;85.59;98595.39;130277;1268;108668;-78
2022/02/07 10:03:46;;;;;;;;;;;;;;;1.54;86.64;98612.73;130298;1268;108646;-77
2022/02/07 10:06:59;;;;;;;9.60;4.40;;;;;;;1.29;88.32;98610.16;130313;1268;108855;-78
2022/02/07 10:10:25;;;;;;;8.90;4.00;;;;;;;1.14;88.51;98631.30;130306;1268;106973;-78
2022/02/07 10:13:41;;;;;;;7.20;3.90;;;;;;;0.99;89.85;98631.00;130266;1268;107648;-77
2022/02/07 10:16:55;;;;;;;13.90;6.70;;;;;;;0.90;89.89;98637.40;130297;1268;108651;-77
2022/02/07 10:20:28;;;;;;;7.80;3.70;;;;;;;0.87;90.12;98644.85;130428;1268;107670;-78
2022/02/07 10:44:35;;;;;;;18.90;8.20;;;;;;;0.95;90.82;98708.89;130309;1268;107494;-78
2022/02/07 10:47:45;;;;;;;9.90;6.10;;;;;;;0.96;91.12;98718.06;130290;1268;108849;-76
2022/02/07 10:51:06;;;;;;;10.30;5.80;;;;;;;1.00;90.72;98724.11;130281;1270;108771;-78
2022/02/07 10:54:13;;;;;;;11.20;4.80;;;;;;;1.07;90.75;98728.71;130267;1268;107668;-77
2022/02/07 10:57:20;;;;;;;8.30;4.30;;;;;;;1.08;90.94;98733.23;130295;1270;108562;-77
2022/02/07 11:00:32;;;;;;;15.80;6.60;;;;;;;1.11;90.78;98747.07;130296;1268;108878;-78
2022/02/07 11:03:43;;;;;;;18.20;7.00;;;;;;;1.19;90.25;98750.96;130228;1270;108774;-77
2022/02/07 11:06:52;;;;;;;16.40;6.30;;;;;;;1.31;89.94;98751.08;130297;1268;107436;-78
2022/02/07 11:10:08;;;;;;;9.60;4.50;;;;;;;1.41;89.55;98763.86;130359;1268;108670;-78
2022/02/07 11:13:43;;;;;;;18.90;5.70;;;;;;;1.50;88.86;98764.27;130357;1268;108798;-78
2022/02/07 11:17:01;;;;;;;12.40;5.40;;;;;;;1.64;88.67;98768.05;130281;1268;108938;-76
2022/02/07 11:20:31;;;;;;;17.10;6.50;;;;;;;1.74;88.34;98774.64;130277;1269;107667;-78
2022/02/07 11:23:47;;;;;;;17.80;7.10;;;;;;;1.87;88.07;98784.46;130289;1268;108723;-78
2022/02/07 11:26:53;;;;;;;9.00;4.80;;;;;;;2.00;87.71;98786.44;130303;1268;108782;-78
2022/02/07 11:30:00;;;;;;;13.50;6.10;;;;;;;2.08;87.02;98792.80;130384;1268;107721;-77
2022/02/07 11:33:07;;;;;;;8.70;4.00;;;;;;;2.19;87.11;98800.36;130219;1268;108027;-77
2022/02/07 11:36:21;;;;;;;8.80;5.20;;;;;;;2.33;86.27;98808.28;130453;1268;108677;-77
2022/02/07 11:39:42;;;;;;;11.20;5.70;;;;;;;2.45;85.88;98819.90;130321;1268;108696;-77
2022/02/07 11:43:08;;;;;;;10.20;4.50;;;;;;;2.58;85.72;98823.46;130280;1268;106843;-78
2022/02/07 11:46:14;;;;;;;8.00;3.80;;;;;;;2.60;84.81;98840.79;130231;1268;108807;-78
2022/02/07 11:49:25;;;;;;;10.00;4.40;;;;;;;2.55;84.71;98841.73;130365;1269;108802;-77
2022/02/07 11:52:32;;;;;;;9.90;4.40;;;;;;;2.58;84.70;98845.26;130202;1268;106921;-78
2022/02/07 11:55:44;;;;;;;10.20;4.90;;;;;;;2.64;84.75;98856.13;130307;1268;107588;-77
2022/02/07 11:59:12;;;;;;;6.90;3.90;;;;;;;2.73;84.51;98867.95;130280;1268;108715;-77
2022/02/07 12:02:19;;;;;;;8.90;3.90;;;;;;;2.77;84.21;98870.55;130174;1268;107689;-78
2022/02/07 12:05:25;;;;;;;10.70;5.10;;;;;;;2.93;84.38;98875.80;130282;1268;107622;-78
2022/02/07 12:08:36;;;;;;;7.50;3.70;;;;;;;3.07;83.20;98873.84;130282;1268;108863;-77
2022/02/07 12:11:46;;;;;;;11.00;5.00;;;;;;;3.12;82.96;98880.60;130239;1268;107152;-78
2022/02/07 12:14:52;;;;;;;5.70;3.40;;;;;;;3.31;83.74;98883.39;130213;1268;108786;-77
2022/02/07 12:17:59;;;;;;;10.70;4.30;;;;;;;3.45;82.44;98890.39;130299;1268;109128;-77
2022/02/07 12:21:25;;;;;;;6.40;3.30;;;;;;;3.66;82.55;98896.23;130294;1266;108879;-77
2022/02/07 12:24:54;;;;;;;7.90;3.50;;;;;;;3.80;80.34;98903.02;130284;1268;108606;-78
2022/02/07 12:28:00;;;;;;;5.60;2.70;;;;;;;3.91;80.47;98906.01;130310;1268;106778;-77
2022/02/07 12:31:16;;;;;;;6.60;3.30;;;;;;;3.97;79.81;98915.16;130260;1270;108584;-77
2022/02/07 12:34:26;;;;;;;8.50;3.10;;;;;;;4.03;79.67;98919.83;130352;1268;108616;-80
2022/02/07 12:37:38;;;;;;;6.90;3.50;;;;;;;4.16;80.53;98926.54;130253;1268;106601;-79
2022/02/07 12:40:44;;;;;;;7.10;3.10;;;;;;;4.18;78.45;98932.03;130322;1268;108870;-78
2022/02/07 12:43:51;;;;;;;6.20;3.10;;;;;;;4.06;78.00;98949.52;130271;1268;108771;-79
2022/02/07 12:46:57;;;;;;;7.70;3.00;;;;;;;4.00;78.96;98947.46;130312;1268;108699;-82
2022/02/07 12:50:10;;;;;;;7.40;3.30;;;;;;;4.03;79.55;98950.31;130112;1268;249178;-76
2022/02/07 12:53:18;;;;;;;7.50;3.20;;;;;;;4.03;78.72;98952.09;130291;1268;108797;-78
2022/02/07 12:56:27;;;;;;;4.90;2.60;;;;;;;3.97;77.08;98959.98;130323;1268;108810;-78
2022/02/07 12:59:32;;;;;;;7.30;3.30;;;;;;;3.90;77.46;98963.98;130148;1268;108642;-76
2022/02/07 13:02:41;;;;;;;15.60;7.40;;;;;;;3.91;78.81;98965.64;130289;1268;108929;-78
2022/02/07 13:05:48;;;;;;;10.20;4.80;;;;;;;3.85;77.41;98969.15;130314;1268;108808;-80
2022/02/07 13:08:55;;;;;;;26.90;13.30;;;;;;;3.79;78.39;98965.17;130512;1268;109115;-80
2022/02/07 13:12:11;;;;;;;28.80;16.60;;;;;;;3.79;76.96;98974.48;130157;1268;108692;-80
2022/02/07 13:15:22;;;;;;;26.50;15.40;;;;;;;3.80;77.74;98975.11;130230;1268;108636;-80
2022/02/07 13:18:33;;;;;;;9.50;3.70;;;;;;;3.79;78.08;98981.76;130288;1268;109751;-79
2022/02/07 13:21:42;;;;;;;8.40;3.30;;;;;;;3.77;77.05;98982.23;130208;1268;108964;-78
2022/02/07 13:24:49;;;;;;;7.80;3.10;;;;;;;3.74;76.27;98989.70;130168;1271;107686;-79
2022/02/07 13:27:58;;;;;;;21.20;9.60;;;;;;;3.73;76.49;98996.45;130299;1268;108821;-78
2022/02/07 13:31:05;;;;;;;42.60;18.80;;;;;;;3.80;77.53;99004.65;130181;1268;108794;-78
2022/02/07 13:34:23;;;;;;;82.00;34.60;;;;;;;3.90;77.92;99010.99;130197;1268;108406;-79
2022/02/07 13:37:31;;;;;;;12.80;4.20;;;;;;;3.96;77.46;99016.03;130294;1270;109230;-77
2022/02/07 13:40:45;;;;;;;10.50;4.80;;;;;;;3.89;75.54;99027.55;130266;1268;108668;-80
2022/02/07 13:43:50;;;;;;;17.70;8.60;;;;;;;3.85;75.15;99042.50;130368;1268;108866;-80
2022/02/07 13:47:02;;;;;;;11.10;4.90;;;;;;;3.86;76.37;99047.41;130310;1268;108811;-78
2022/02/07 13:50:11;;;;;;;7.80;3.70;;;;;;;3.90;76.04;99054.23;130314;1268;108974;-77
2022/02/07 13:53:19;;;;;;;16.30;7.40;;;;;;;3.88;75.41;99060.20;130384;1268;108825;-79
2022/02/07 13:56:33;;;;;;;9.70;3.90;;;;;;;3.89;75.36;99071.61;130336;1268;108727;-79
2022/02/07 13:59:39;;;;;;;13.90;6.30;;;;;;;3.86;74.83;99072.18;130384;1268;108774;-78
2022/02/07 14:02:45;;;;;;;15.40;5.10;;;;;;;3.84;74.79;99082.73;130411;1268;109204;-78
2022/02/07 14:05:52;;;;;;;10.50;4.50;;;;;;;3.84;75.10;99093.15;130377;1268;108758;-78
2022/02/07 14:08:58;;;;;;;10.50;4.20;;;;;;;3.86;75.34;99100.17;130299;1268;108691;-78
2022/02/07 14:12:05;;;;;;;9.10;3.50;;;;;;;3.93;75.70;99112.71;130538;1268;107794;-80
2022/02/07 14:15:10;;;;;;;10.50;3.70;;;;;;;4.01;74.98;99123.45;130266;1268;108689;-79
2022/02/07 14:18:18;;;;;;;18.80;9.80;;;;;;;3.92;73.83;99125.79;130246;1268;106716;-78
2022/02/07 14:21:26;;;;;;;12.90;5.00;;;;;;;3.87;74.50;99140.57;130263;1268;108743;-78
2022/02/07 14:24:32;;;;;;;9.50;3.90;;;;;;;3.83;75.50;99144.98;130262;1268;107698;-78
2022/02/07 14:27:37;;;;;;;10.30;3.80;;;;;;;3.86;76.07;99151.32;130300;1268;107387;-78
2022/02/07 14:30:43;;;;;;;9.90;4.20;;;;;;;3.86;75.60;99154.85;130206;1268;108825;-78
2022/02/07 14:33:49;;;;;;;8.20;4.30;;;;;;;3.84;75.14;99166.29;130305;1266;108629;-76
2022/02/07 14:36:55;;;;;;;14.20;5.90;;;;;;;3.83;75.02;99169.23;130467;1268;108561;-78
2022/02/07 14:40:01;;;;;;;14.70;6.30;;;;;;;3.80;74.96;99174.61;130528;1268;108778;-78
2022/02/07 14:43:08;;;;;;;7.60;3.60;;;;;;;3.73;74.83;99189.07;130394;1268;108991;-75
2022/02/07 14:46:21;;;;;;;9.90;5.00;;;;;;;3.69;75.94;99183.41;130332;1268;108767;-76
2022/02/07 14:49:27;;;;;;;12.80;6.40;;;;;;;3.68;76.11;99192.88;130358;1268;108769;-78
2022/02/07 14:52:32;;;;;;;14.00;6.60;;;;;;;3.69;76.42;99201.02;130344;1268;108668;-81
2022/02/07 14:55:38;;;;;;;10.10;4.90;;;;;;;3.68;76.39;99201.48;130400;1268;108840;-80
2022/02/07 14:58:43;;;;;;;18.50;6.60;;;;;;;3.68;76.55;99202.02;130279;1268;108753;-79
2022/02/07 15:01:52;;;;;;;17.10;8.00;;;;;;;3.73;76.33;99212.17;130237;1268;108816;-80
2022/02/07 15:05:00;;;;;;;97.70;39.50;;;;;;;3.72;75.95;99212.59;130351;1268;108711;-81
2022/02/07 15:08:06;;;;;;;105.70;44.60;;;;;;;3.69;76.07;99223.91;130381;1268;109714;-79
2022/02/07 15:11:12;;;;;;;42.30;17.70;;;;;;;3.72;76.48;99233.86;130352;1267;107838;-78
2022/02/07 15:14:18;;;;;;;42.00;21.70;;;;;;;3.71;76.49;99236.73;130349;1268;108940;-76
2022/02/07 15:17:28;;;;;;;8.50;3.80;;;;;;;3.69;76.27;99243.96;130388;1268;108650;-77
2022/02/07 15:20:34;;;;;;;8.10;3.60;;;;;;;3.63;75.91;99246.27;130345;1268;108857;-78
2022/02/07 15:23:41;;;;;;;14.00;7.80;;;;;;;3.59;75.86;99255.45;130345;1268;108839;-80
2022/02/07 15:26:47;;;;;;;50.20;26.90;;;;;;;3.56;76.25;99252.83;130404;1268;106845;-77
2022/02/07 15:29:53;;;;;;;21.20;10.00;;;;;;;3.56;76.47;99258.83;130345;1265;108814;-77
2022/02/07 15:33:00;;;;;;;121.70;55.90;;;;;;;3.55;76.54;99263.68;130402;1267;109106;-77
2022/02/07 15:36:06;;;;;;;30.60;13.70;;;;;;;3.50;76.72;99267.25;130214;1268;108430;-77
2022/02/07 15:39:14;;;;;;;16.80;6.70;;;;;;;3.45;76.89;99274.73;130380;1268;108661;-77
2022/02/07 15:42:20;;;;;;;8.20;4.60;;;;;;;3.40;77.03;99292.20;130369;1268;108978;-77
2022/02/07 15:45:26;;;;;;;9.00;4.00;;;;;;;3.36;77.04;99298.65;130281;1268;109148;-77
2022/02/07 15:48:33;;;;;;;10.10;6.00;;;;;;;3.30;76.97;99308.19;130287;1268;109014;-77
2022/02/07 15:51:39;;;;;;;9.60;5.30;;;;;;;3.21;77.25;99318.61;130360;1268;108681;-76
2022/02/07 15:54:51;;;;;;;8.90;4.60;;;;;;;3.12;77.20;99327.54;130294;1268;107090;-78
2022/02/07 15:57:56;;;;;;;8.20;3.10;;;;;;;3.06;77.30;99333.15;130276;1268;108917;-76
2022/02/07 16:01:01;;;;;;;11.50;4.10;;;;;;;3.03;77.43;99340.65;130289;1267;108837;-75